createdAt,value
2022-10-25T00:00:56.411Z,67.71
2022-10-25T00:03:23.042Z,67.44
2022-10-25T00:05:49.667Z,67.84
2022-10-25T00:08:16.254Z,67.51
2022-10-25T00:10:42.874Z,67.40
2022-10-25T00:13:09.475Z,67.46
2022-10-25T00:15:36.087Z,67.54
2022-10-25T00:18:02.713Z,66.94
2022-10-25T00:20:29.312Z,66.71
2022-10-25T00:22:55.924Z,66.83
2022-10-25T00:25:22.516Z,66.81
2022-10-25T00:27:49.136Z,66.40
2022-10-25T00:30:15.784Z,66.13
2022-10-25T00:32:42.410Z,65.89
2022-10-25T00:35:09.018Z,65.85
2022-10-25T00:37:35.664Z,65.91
2022-10-25T00:40:02.287Z,66.47
2022-10-25T00:42:28.930Z,66.48
2022-10-25T00:44:55.540Z,66.48
2022-10-25T00:47:22.138Z,66.54
2022-10-25T00:49:48.763Z,67.05
2022-10-25T00:52:15.371Z,66.93
2022-10-25T00:54:41.983Z,67.06
2022-10-25T00:57:08.587Z,66.99
2022-10-25T00:59:35.176Z,66.88
2022-10-25T01:02:01.955Z,67.05
2022-10-25T01:04:28.763Z,66.46
2022-10-25T01:06:55.392Z,66.29
2022-10-25T01:09:21.988Z,66.38
2022-10-25T01:11:48.608Z,66.15
2022-10-25T01:14:15.234Z,66.12
2022-10-25T01:16:41.859Z,66.68
2022-10-25T01:19:08.460Z,67.35
2022-10-25T01:21:35.078Z,66.73
2022-10-25T01:24:01.713Z,66.30
2022-10-25T01:26:28.290Z,65.91
2022-10-25T01:28:54.956Z,66.16
2022-10-25T01:31:21.561Z,66.19
2022-10-25T01:33:48.171Z,65.86
2022-10-25T01:38:46.244Z,65.82
2022-10-25T01:41:12.858Z,65.57
2022-10-25T01:43:39.485Z,65.21
2022-10-25T01:46:06.094Z,65.01
2022-10-25T01:48:32.692Z,65.52
2022-10-25T01:50:59.308Z,65.30
2022-10-25T01:53:25.898Z,64.64
2022-10-25T01:55:52.482Z,64.50
2022-10-25T01:58:19.120Z,64.97
2022-10-25T02:00:45.782Z,64.50
2022-10-25T02:03:13.132Z,65.68
2022-10-25T02:05:39.710Z,66.37
2022-10-25T02:08:06.319Z,68.77
2022-10-25T02:10:32.912Z,67.98
2022-10-25T02:12:59.575Z,66.86
2022-10-25T02:15:26.182Z,66.34
2022-10-25T02:17:52.813Z,66.38
2022-10-25T02:20:19.423Z,65.93
2022-10-25T02:22:46.245Z,65.71
2022-10-25T02:25:13.095Z,65.56
2022-10-25T02:27:39.720Z,66.40
2022-10-25T02:30:06.332Z,65.88
2022-10-25T02:32:32.956Z,65.86
2022-10-25T02:34:59.606Z,66.20
2022-10-25T02:37:26.260Z,66.60
2022-10-25T02:39:52.919Z,66.57
2022-10-25T02:42:19.504Z,67.10
2022-10-25T02:44:46.106Z,67.59
2022-10-25T02:47:12.691Z,67.27
2022-10-25T02:49:39.786Z,66.66
2022-10-25T02:52:06.392Z,66.51
2022-10-25T02:54:32.982Z,66.07
2022-10-25T02:56:59.607Z,65.92
2022-10-25T02:59:26.221Z,65.97
2022-10-25T03:01:52.892Z,67.77
2022-10-25T03:04:19.578Z,67.96
2022-10-25T03:06:46.199Z,67.29
2022-10-25T03:09:12.801Z,66.77
2022-10-25T03:11:39.435Z,66.34
2022-10-25T03:14:06.059Z,66.00
2022-10-25T03:16:32.656Z,65.78
2022-10-25T03:18:59.257Z,65.54
2022-10-25T03:21:25.877Z,64.94
2022-10-25T03:23:52.485Z,65.35
2022-10-25T03:26:19.099Z,65.36
2022-10-25T03:28:45.684Z,66.21
2022-10-25T03:31:12.315Z,66.32
2022-10-25T03:33:38.906Z,66.56
2022-10-25T03:36:05.557Z,66.58
2022-10-25T03:38:32.160Z,66.24
2022-10-25T03:40:58.777Z,66.68
2022-10-25T03:43:25.405Z,66.80
2022-10-25T03:45:52.021Z,66.44
2022-10-25T03:48:18.810Z,66.37
2022-10-25T03:50:45.411Z,65.71
2022-10-25T03:53:11.997Z,66.67
2022-10-25T03:55:38.615Z,66.22
2022-10-25T03:58:05.227Z,66.38
2022-10-25T04:00:31.966Z,66.69
2022-10-25T04:03:01.830Z,66.56
2022-10-25T04:05:29.166Z,66.60
2022-10-25T04:07:55.806Z,66.59
2022-10-25T04:10:23.276Z,66.52
2022-10-25T04:15:23.053Z,66.86
2022-10-25T04:17:49.638Z,66.78
2022-10-25T04:20:16.247Z,66.73
2022-10-25T04:22:42.854Z,66.58
2022-10-25T04:25:09.443Z,66.70
2022-10-25T04:27:36.076Z,66.71
2022-10-25T04:30:02.669Z,66.98
2022-10-25T04:32:29.274Z,66.80
2022-10-25T04:34:55.901Z,66.80
2022-10-25T04:37:22.482Z,66.81
2022-10-25T04:39:49.087Z,66.89
2022-10-25T04:42:15.687Z,67.21
2022-10-25T04:44:42.320Z,66.97
2022-10-25T04:47:08.978Z,66.86
2022-10-25T04:49:35.598Z,66.68
2022-10-25T04:52:02.245Z,66.63
2022-10-25T04:54:28.884Z,66.80
2022-10-25T04:56:55.472Z,67.18
2022-10-25T04:59:22.132Z,69.03
2022-10-25T05:01:48.827Z,68.78
2022-10-25T05:04:15.536Z,68.15
2022-10-25T05:06:42.125Z,67.77
2022-10-25T05:09:08.759Z,67.90
2022-10-25T05:14:06.909Z,67.89
2022-10-25T05:16:33.557Z,67.35
2022-10-25T05:19:00.144Z,67.25
2022-10-25T05:24:01.461Z,67.15
2022-10-25T05:26:29.114Z,66.67
2022-10-25T05:28:55.755Z,66.40
2022-10-25T05:31:22.379Z,66.70
2022-10-25T05:33:49.000Z,67.24
2022-10-25T05:36:15.584Z,67.10
2022-10-25T05:38:42.254Z,67.25
2022-10-25T05:41:08.860Z,67.39
2022-10-25T05:43:35.500Z,67.47
2022-10-25T05:46:02.120Z,67.93
2022-10-25T05:48:28.741Z,68.16
2022-10-25T05:51:03.476Z,68.13
2022-10-25T05:53:41.015Z,67.71
2022-10-25T05:56:07.661Z,68.02
2022-10-25T05:58:34.247Z,67.40
2022-10-25T06:01:00.912Z,66.69
2022-10-25T06:03:27.526Z,66.79
2022-10-25T06:05:54.118Z,66.79
2022-10-25T06:08:20.736Z,66.44
2022-10-25T06:13:14.885Z,66.44
2022-10-25T06:15:41.545Z,66.75
2022-10-25T06:18:08.161Z,66.54
2022-10-25T06:20:34.774Z,67.20
2022-10-25T06:23:01.435Z,66.83
2022-10-25T06:25:28.034Z,66.59
2022-10-25T06:27:54.644Z,67.05
2022-10-25T06:30:21.289Z,66.96
2022-10-25T06:32:48.122Z,67.15
2022-10-25T06:35:14.927Z,67.83
2022-10-25T06:37:41.528Z,67.57
2022-10-25T06:40:08.161Z,67.53
2022-10-25T06:42:34.769Z,67.00
2022-10-25T06:45:01.408Z,66.88
2022-10-25T06:47:28.032Z,67.59
2022-10-25T06:49:54.684Z,67.74
2022-10-25T06:52:21.331Z,68.96
2022-10-25T06:54:47.920Z,68.99
2022-10-25T06:57:14.541Z,68.45
2022-10-25T06:59:41.181Z,69.26
2022-10-25T07:02:07.927Z,69.03
2022-10-25T07:04:34.601Z,68.79
2022-10-25T07:07:01.182Z,68.14
2022-10-25T07:09:27.806Z,67.28
2022-10-25T07:11:54.489Z,67.05
2022-10-25T07:14:21.096Z,65.84
2022-10-25T07:16:47.748Z,65.78
2022-10-25T07:19:14.390Z,64.85
2022-10-25T07:21:41.004Z,64.91
2022-10-25T07:24:07.619Z,64.43
2022-10-25T07:26:34.216Z,65.28
2022-10-25T07:29:00.891Z,64.53
2022-10-25T07:31:27.502Z,64.13
2022-10-25T07:33:54.158Z,64.39
2022-10-25T07:36:20.736Z,64.99
2022-10-25T07:38:47.484Z,64.99
2022-10-25T07:41:14.077Z,65.08
2022-10-25T07:43:40.662Z,64.12
2022-10-25T07:46:07.301Z,63.36
2022-10-25T07:48:33.914Z,62.76
2022-10-25T07:51:00.524Z,62.28
2022-10-25T07:53:27.129Z,62.20
2022-10-25T07:55:53.755Z,62.45
2022-10-25T07:58:20.384Z,61.78
2022-10-25T08:00:47.010Z,62.20
2022-10-25T08:03:13.739Z,61.88
2022-10-25T08:05:40.399Z,61.53
2022-10-25T08:08:07.002Z,61.34
2022-10-25T08:10:33.624Z,61.08
2022-10-25T08:13:00.280Z,61.20
2022-10-25T08:15:26.887Z,61.43
2022-10-25T08:17:53.522Z,61.73
2022-10-25T08:20:26.076Z,61.34
2022-10-25T08:22:59.471Z,62.27
2022-10-25T08:25:26.948Z,63.43
2022-10-25T08:27:53.730Z,63.05
2022-10-25T08:30:20.389Z,63.10
2022-10-25T08:32:47.085Z,63.23
2022-10-25T08:35:13.677Z,61.63
2022-10-25T08:37:40.294Z,60.79
2022-10-25T08:40:06.917Z,60.71
2022-10-25T08:42:33.512Z,59.82
2022-10-25T08:45:00.157Z,59.18
2022-10-25T08:47:26.747Z,59.03
2022-10-25T08:49:53.354Z,58.16
2022-10-25T08:52:19.963Z,57.23
2022-10-25T08:54:46.566Z,57.46
2022-10-25T08:57:16.658Z,57.23
2022-10-25T08:59:43.371Z,57.08
2022-10-25T09:02:10.134Z,56.86
2022-10-25T09:04:36.802Z,56.79
2022-10-25T09:07:03.422Z,56.42
2022-10-25T09:09:30.067Z,56.32
2022-10-25T09:11:56.720Z,55.51
2022-10-25T09:14:23.341Z,56.20
2022-10-25T09:16:49.927Z,55.63
2022-10-25T09:19:16.560Z,56.49
2022-10-25T09:21:43.195Z,55.87
2022-10-25T09:24:09.798Z,55.78
2022-10-25T09:26:36.424Z,55.52
2022-10-25T09:29:03.063Z,56.07
2022-10-25T09:31:29.685Z,55.75
2022-10-25T09:33:57.795Z,55.49
2022-10-25T09:36:26.709Z,54.76
2022-10-25T09:38:53.348Z,54.53
2022-10-25T09:41:19.939Z,54.83
2022-10-25T09:43:46.552Z,53.78
2022-10-25T09:46:13.194Z,53.57
2022-10-25T09:48:39.804Z,52.73
2022-10-25T09:51:06.431Z,52.78
2022-10-25T09:53:33.058Z,52.67
2022-10-25T09:55:59.701Z,53.08
2022-10-25T09:58:26.358Z,52.09
2022-10-25T10:00:52.971Z,52.12
2022-10-25T10:03:19.580Z,50.85
2022-10-25T10:05:46.182Z,50.88
2022-10-25T10:08:12.788Z,51.41
2022-10-25T10:10:39.457Z,50.79
2022-10-25T10:13:06.076Z,50.00
2022-10-25T10:15:32.678Z,49.61
2022-10-25T10:17:59.280Z,49.85
2022-10-25T10:20:25.917Z,49.85
2022-10-25T10:22:52.524Z,49.38
2022-10-25T10:25:19.141Z,48.80
2022-10-25T10:27:46.116Z,48.54
2022-10-25T10:30:12.962Z,47.66
2022-10-25T10:35:11.073Z,47.95
2022-10-25T10:37:37.668Z,47.37
2022-10-25T10:40:04.280Z,46.94
2022-10-25T10:44:58.388Z,43.71
2022-10-25T10:47:25.028Z,45.51
2022-10-25T10:49:51.647Z,46.90
2022-10-25T10:52:18.352Z,45.88
2022-10-25T10:54:45.009Z,46.11
2022-10-25T10:57:11.655Z,46.43
2022-10-25T10:59:38.246Z,46.76
2022-10-25T11:02:04.954Z,46.67
2022-10-25T11:04:31.667Z,46.48
2022-10-25T11:06:58.296Z,46.43
2022-10-25T11:09:24.935Z,47.60
2022-10-25T11:11:51.622Z,47.88
2022-10-25T11:14:18.290Z,48.95
2022-10-25T11:16:44.927Z,48.55
2022-10-25T11:19:11.524Z,48.11
2022-10-25T11:21:38.185Z,47.62
2022-10-25T11:24:04.811Z,46.75
2022-10-25T11:26:31.477Z,45.68
2022-10-25T11:28:58.109Z,46.34
2022-10-25T11:31:24.704Z,45.72
2022-10-25T11:33:51.348Z,45.57
2022-10-25T11:36:18.019Z,43.17
2022-10-25T11:38:44.634Z,46.07
2022-10-25T11:41:11.262Z,44.92
2022-10-25T11:43:38.011Z,45.37
2022-10-25T11:46:04.735Z,45.13
2022-10-25T11:48:31.380Z,46.47
2022-10-25T11:50:58.071Z,45.71
2022-10-25T11:53:24.681Z,45.43
2022-10-25T11:55:51.313Z,42.86
2022-10-25T11:58:17.916Z,43.31
2022-10-25T12:00:44.512Z,45.30
2022-10-25T12:03:11.209Z,45.28
2022-10-25T12:05:37.881Z,45.08
2022-10-25T12:08:04.526Z,45.98
2022-10-25T12:10:31.148Z,45.80
2022-10-25T12:12:57.753Z,45.27
2022-10-25T12:15:24.376Z,46.53
2022-10-25T12:17:50.998Z,45.78
2022-10-25T12:20:17.616Z,47.21
2022-10-25T12:22:44.418Z,46.29
2022-10-25T12:25:11.271Z,45.80
2022-10-25T12:27:37.880Z,45.95
2022-10-25T12:30:04.492Z,45.10
2022-10-25T12:32:31.135Z,45.57
2022-10-25T12:34:57.747Z,46.26
2022-10-25T12:37:24.363Z,46.65
2022-10-25T12:39:51.000Z,45.38
2022-10-25T12:42:17.591Z,46.87
2022-10-25T12:44:44.225Z,46.49
2022-10-25T12:47:10.873Z,46.93
2022-10-25T12:49:37.489Z,46.24
2022-10-25T12:52:04.091Z,45.29
2022-10-25T12:54:30.702Z,44.69
2022-10-25T12:56:57.348Z,42.58
2022-10-25T12:59:23.951Z,43.46
2022-10-25T13:01:50.682Z,42.87
2022-10-25T13:04:17.377Z,43.81
2022-10-25T13:06:43.996Z,42.79
2022-10-25T13:09:10.611Z,44.06
2022-10-25T13:11:37.215Z,44.31
2022-10-25T13:14:03.842Z,44.49
2022-10-25T13:16:30.428Z,45.11
2022-10-25T13:18:57.043Z,43.16
2022-10-25T13:21:23.658Z,42.27
2022-10-25T13:23:50.258Z,42.91
2022-10-25T13:26:16.864Z,42.22
2022-10-25T13:28:43.451Z,42.32
2022-10-25T13:31:10.066Z,40.91
2022-10-25T13:33:36.684Z,41.53
2022-10-25T13:36:03.291Z,41.21
2022-10-25T13:38:29.913Z,40.73
2022-10-25T13:40:57.036Z,41.28
2022-10-25T13:43:23.728Z,40.94
2022-10-25T13:45:50.364Z,40.62
2022-10-25T13:48:17.008Z,40.48
2022-10-25T13:50:43.629Z,40.02
2022-10-25T13:53:10.227Z,40.94
2022-10-25T13:55:36.893Z,40.19
2022-10-25T13:58:03.503Z,40.06
2022-10-25T14:00:30.207Z,39.77
2022-10-25T14:02:56.876Z,40.83
2022-10-25T14:05:23.468Z,41.30
2022-10-25T14:07:50.079Z,40.91
2022-10-25T14:10:16.742Z,41.19
2022-10-25T14:12:43.445Z,41.54
2022-10-25T14:15:10.054Z,40.53
2022-10-25T14:17:36.675Z,40.76
2022-10-25T14:20:03.355Z,41.50
2022-10-25T14:22:32.741Z,41.30
2022-10-25T14:24:59.788Z,42.11
2022-10-25T14:27:26.378Z,42.89
2022-10-25T14:29:53.001Z,42.94
2022-10-25T14:32:19.596Z,43.23
2022-10-25T14:34:46.223Z,43.41
2022-10-25T14:37:12.825Z,42.83
2022-10-25T14:39:39.420Z,41.74
2022-10-25T14:42:06.034Z,43.03
2022-10-25T14:44:32.673Z,42.96
2022-10-25T14:46:59.297Z,41.94
2022-10-25T14:49:25.901Z,41.85
2022-10-25T14:51:52.557Z,42.17
2022-10-25T14:54:19.174Z,41.44
2022-10-25T14:56:45.807Z,41.68
2022-10-25T14:59:15.362Z,42.21
2022-10-25T15:01:42.026Z,42.32
2022-10-25T15:04:08.653Z,43.13
2022-10-25T15:06:35.276Z,44.02
2022-10-25T15:09:36.980Z,44.84
2022-10-25T15:11:48.532Z,44.93
2022-10-25T15:14:15.135Z,45.65
2022-10-25T15:16:41.744Z,45.93
2022-10-25T15:19:08.375Z,46.21
2022-10-25T15:21:35.006Z,47.61
2022-10-25T15:24:01.635Z,48.02
2022-10-25T15:26:28.237Z,47.63
2022-10-25T15:28:54.892Z,48.07
2022-10-25T15:31:24.519Z,48.84
2022-10-25T15:33:51.757Z,49.21
2022-10-25T15:36:18.418Z,48.98
2022-10-25T15:39:16.865Z,49.72
2022-10-25T15:41:31.627Z,50.30
2022-10-25T15:43:58.243Z,50.64
2022-10-25T15:46:24.839Z,50.86
2022-10-25T15:48:51.433Z,51.03
2022-10-25T15:51:18.057Z,51.20
2022-10-25T15:53:44.670Z,51.57
2022-10-25T15:56:11.261Z,51.83
2022-10-25T15:58:37.881Z,52.20
2022-10-25T16:01:04.551Z,52.75
2022-10-25T16:03:31.249Z,53.13
2022-10-25T16:05:57.856Z,52.53
2022-10-25T16:08:24.522Z,52.93
2022-10-25T16:10:51.169Z,53.00
2022-10-25T16:13:17.787Z,53.27
2022-10-25T16:15:44.407Z,53.52
2022-10-25T16:18:11.060Z,53.58
2022-10-25T16:20:37.763Z,53.81
2022-10-25T16:23:04.430Z,53.75
2022-10-25T16:25:32.985Z,54.39
2022-10-25T16:27:59.898Z,54.48
2022-10-25T16:30:26.524Z,54.55
2022-10-25T16:32:53.155Z,54.45
2022-10-25T16:35:19.759Z,54.88
2022-10-25T16:37:46.749Z,55.13
2022-10-25T16:40:13.582Z,55.68
2022-10-25T16:42:40.210Z,55.35
2022-10-25T16:45:06.842Z,55.28
2022-10-25T16:47:33.438Z,55.60
2022-10-25T16:50:00.072Z,56.11
2022-10-25T16:52:26.695Z,56.12
2022-10-25T16:54:53.304Z,55.87
2022-10-25T16:57:19.943Z,55.96
2022-10-25T16:59:46.564Z,55.96
2022-10-25T17:02:13.249Z,56.30
2022-10-25T17:04:39.939Z,57.59
2022-10-25T17:07:06.557Z,58.72
2022-10-25T17:09:33.152Z,58.29
2022-10-25T17:11:59.793Z,57.64
2022-10-25T17:14:26.424Z,57.65
2022-10-25T17:16:53.028Z,57.76
2022-10-25T17:19:19.642Z,57.55
2022-10-25T17:21:46.263Z,57.84
2022-10-25T17:24:12.920Z,58.37
2022-10-25T17:26:39.531Z,58.21
2022-10-25T17:29:06.146Z,58.67
2022-10-25T17:31:32.807Z,58.90
2022-10-25T17:33:59.444Z,58.91
2022-10-25T17:36:26.062Z,58.56
2022-10-25T17:38:52.672Z,59.01
2022-10-25T17:41:19.288Z,59.65
2022-10-25T17:43:45.921Z,59.55
2022-10-25T17:46:12.517Z,59.07
2022-10-25T17:48:39.173Z,58.68
2022-10-25T17:51:05.772Z,60.11
2022-10-25T17:53:32.398Z,60.33
2022-10-25T17:55:58.995Z,59.64
2022-10-25T17:58:25.595Z,59.20
2022-10-25T18:00:52.275Z,59.46
2022-10-25T18:03:18.897Z,59.81
2022-10-25T18:05:45.544Z,60.24
2022-10-25T18:08:12.243Z,60.07
2022-10-25T18:10:38.893Z,60.21
2022-10-25T18:13:05.588Z,60.23
2022-10-25T18:15:32.212Z,59.90
2022-10-25T18:17:58.826Z,60.34
2022-10-25T18:20:25.447Z,61.29
2022-10-25T18:22:52.049Z,61.58
2022-10-25T18:25:18.666Z,61.09
2022-10-25T18:27:45.518Z,61.20
2022-10-25T18:30:12.363Z,61.41
2022-10-25T18:32:39.010Z,61.21
2022-10-25T18:35:05.644Z,61.31
2022-10-25T18:37:32.287Z,61.63
2022-10-25T18:39:58.907Z,61.97
2022-10-25T18:42:25.500Z,63.32
2022-10-25T18:44:52.247Z,63.84
2022-10-25T18:47:18.942Z,63.50
2022-10-25T18:49:45.637Z,63.57
2022-10-25T18:52:12.284Z,63.69
2022-10-25T18:54:38.949Z,63.01
2022-10-25T18:57:05.579Z,63.42
2022-10-25T18:59:32.224Z,63.55
2022-10-25T19:01:59.042Z,63.45
2022-10-25T19:04:25.719Z,63.23
2022-10-25T19:06:52.391Z,63.13
2022-10-25T19:09:19.035Z,63.50
2022-10-25T19:11:45.654Z,63.93
2022-10-25T19:14:12.277Z,63.29
2022-10-25T19:16:38.910Z,63.15
2022-10-25T19:19:05.524Z,63.28
2022-10-25T19:21:32.139Z,63.00
2022-10-25T19:23:58.742Z,63.44
2022-10-25T19:29:09.620Z,64.09
2022-10-25T19:31:36.249Z,63.26
2022-10-25T19:34:02.867Z,63.10
2022-10-25T19:36:29.469Z,62.67
2022-10-25T19:38:56.097Z,63.29
2022-10-25T19:41:22.839Z,63.50
2022-10-25T19:43:49.434Z,63.48
2022-10-25T19:46:16.067Z,62.94
2022-10-25T19:48:42.692Z,63.57
2022-10-25T19:51:09.640Z,63.03
2022-10-25T19:53:36.263Z,64.12
2022-10-25T19:56:02.878Z,64.23
2022-10-25T19:58:29.491Z,63.58
2022-10-25T20:00:56.221Z,63.55
2022-10-25T20:03:22.837Z,62.54
2022-10-25T20:05:49.499Z,62.69
2022-10-25T20:08:16.105Z,63.05
2022-10-25T20:10:42.730Z,62.50
2022-10-25T20:13:09.339Z,62.89
2022-10-25T20:15:35.949Z,62.73
2022-10-25T20:18:02.607Z,64.07
2022-10-25T20:20:29.220Z,64.67
2022-10-25T20:22:55.866Z,63.84
2022-10-25T20:25:22.485Z,63.85
2022-10-25T20:27:49.457Z,64.13
2022-10-25T20:30:16.238Z,63.61
2022-10-25T20:32:42.881Z,63.70
2022-10-25T20:35:09.478Z,63.39
2022-10-25T20:37:36.079Z,63.54
2022-10-25T20:40:02.720Z,64.67
2022-10-25T20:42:29.357Z,64.63
2022-10-25T20:44:55.972Z,63.76
2022-10-25T20:47:22.643Z,64.27
2022-10-25T20:49:49.305Z,64.59
2022-10-25T20:52:15.909Z,64.19
2022-10-25T20:54:42.626Z,64.43
2022-10-25T20:57:09.286Z,64.41
2022-10-25T20:59:35.908Z,64.28
2022-10-25T21:02:02.595Z,64.77
2022-10-25T21:04:42.418Z,64.56
2022-10-25T21:07:15.950Z,65.17
2022-10-25T21:09:47.046Z,65.78
2022-10-25T21:12:15.808Z,64.87
2022-10-25T21:14:42.458Z,64.84
2022-10-25T21:17:09.080Z,64.51
2022-10-25T21:19:35.681Z,64.54
2022-10-25T21:22:02.321Z,64.79
2022-10-25T21:24:28.967Z,64.61
2022-10-25T21:26:55.629Z,65.42
2022-10-25T21:29:22.260Z,65.36
2022-10-25T21:31:48.855Z,65.22
2022-10-25T21:34:15.466Z,65.25
2022-10-25T21:36:42.087Z,65.42
2022-10-25T21:39:08.703Z,65.38
2022-10-25T21:41:35.309Z,65.17
2022-10-25T21:44:01.936Z,65.06
2022-10-25T21:46:28.606Z,65.34
2022-10-25T21:48:55.215Z,64.98
2022-10-25T21:51:21.809Z,65.04
2022-10-25T21:53:48.477Z,65.07
2022-10-25T21:56:15.125Z,65.05
2022-10-25T21:58:41.727Z,65.02
2022-10-25T22:01:08.434Z,65.02
2022-10-25T22:03:35.156Z,65.15
2022-10-25T22:06:01.761Z,65.24
2022-10-25T22:08:28.411Z,65.28
2022-10-25T22:10:55.039Z,64.99
2022-10-25T22:13:21.688Z,65.15
2022-10-25T22:15:48.280Z,65.46
2022-10-25T22:18:14.905Z,65.40
2022-10-25T22:20:41.501Z,65.66
2022-10-25T22:23:08.127Z,65.91
2022-10-25T22:25:34.740Z,65.40
2022-10-25T22:28:01.382Z,65.52
2022-10-25T22:30:27.993Z,65.32
2022-10-25T22:32:54.603Z,65.05
2022-10-25T22:35:21.218Z,65.71
2022-10-25T22:37:48.052Z,66.18
2022-10-25T22:40:14.818Z,66.46
2022-10-25T22:42:41.422Z,66.61
2022-10-25T22:45:08.037Z,65.99
2022-10-25T22:47:34.655Z,65.35
2022-10-25T22:50:01.252Z,65.61
2022-10-25T22:52:27.870Z,65.34
2022-10-25T22:54:54.474Z,65.08
2022-10-25T22:57:21.104Z,64.94
2022-10-25T22:59:47.694Z,64.66
2022-10-25T23:02:14.318Z,64.51
2022-10-25T23:04:40.911Z,64.83
2022-10-25T23:07:07.527Z,65.36
2022-10-25T23:09:34.114Z,65.20
2022-10-25T23:12:00.744Z,65.07
2022-10-25T23:14:27.335Z,65.31
2022-10-25T23:16:53.947Z,64.76
2022-10-25T23:19:20.593Z,64.36
2022-10-25T23:21:47.272Z,65.16
2022-10-25T23:24:13.862Z,65.08
2022-10-25T23:26:40.481Z,65.83
2022-10-25T23:29:07.096Z,65.69
2022-10-25T23:31:33.744Z,65.58
2022-10-25T23:34:00.368Z,66.11
2022-10-25T23:36:26.991Z,65.18
2022-10-25T23:38:53.583Z,65.63
2022-10-25T23:41:20.187Z,65.71
2022-10-25T23:43:46.810Z,65.64
2022-10-25T23:46:13.431Z,65.57
2022-10-25T23:48:40.053Z,65.59
2022-10-25T23:51:06.683Z,66.02
2022-10-25T23:53:33.274Z,66.20
2022-10-25T23:55:59.915Z,66.12
2022-10-25T23:58:26.525Z,67.21
